sensor_id;sensor_type;location;lat;lon;timestamp;temperature;humidity
18888;DHT22;9576;47.792;9.628;2024-03-25T00:02:51;3.40;99.90
18888;DHT22;9576;47.792;9.628;2024-03-25T00:05:52;3.30;99.90
18888;DHT22;9576;47.792;9.628;2024-03-25T00:08:54;3.30;99.90
18888;DHT22;9576;47.792;9.628;2024-03-25T00:11:55;3.30;99.90
18888;DHT22;9576;47.792;9.628;2024-03-25T00:14:58;3.30;99.90
18888;DHT22;9576;47.792;9.628;2024-03-25T00:17:59;3.30;99.90
18888;DHT22;9576;47.792;9.628;2024-03-25T00:21:01;3.20;99.90
18888;DHT22;9576;47.792;9.628;2024-03-25T00:24:02;3.20;99.90
18888;DHT22;9576;47.792;9.628;2024-03-25T00:27:04;3.20;99.90
18888;DHT22;9576;47.792;9.628;2024-03-25T00:30:08;3.20;99.90
18888;DHT22;9576;47.792;9.628;2024-03-25T00:33:10;3.20;99.90
18888;DHT22;9576;47.792;9.628;2024-03-25T00:36:11;3.30;99.90
18888;DHT22;9576;47.792;9.628;2024-03-25T00:39:13;3.30;99.90
18888;DHT22;9576;47.792;9.628;2024-03-25T00:42:14;3.40;99.90
18888;DHT22;9576;47.792;9.628;2024-03-25T00:45:17;3.40;99.90
18888;DHT22;9576;47.792;9.628;2024-03-25T00:48:19;3.50;99.90
18888;DHT22;9576;47.792;9.628;2024-03-25T00:51:20;3.50;99.90
18888;DHT22;9576;47.792;9.628;2024-03-25T00:54:22;3.60;99.90
18888;DHT22;9576;47.792;9.628;2024-03-25T00:57:24;3.60;99.90
18888;DHT22;9576;47.792;9.628;2024-03-25T01:00:27;3.60;99.90
18888;DHT22;9576;47.792;9.628;2024-03-25T01:03:28;3.60;99.90
18888;DHT22;9576;47.792;9.628;2024-03-25T01:06:30;3.60;99.90
18888;DHT22;9576;47.792;9.628;2024-03-25T01:09:31;3.60;99.90
18888;DHT22;9576;47.792;9.628;2024-03-25T01:12:32;3.70;99.90
18888;DHT22;9576;47.792;9.628;2024-03-25T01:15:35;3.80;99.90
18888;DHT22;9576;47.792;9.628;2024-03-25T01:18:37;3.80;99.90
18888;DHT22;9576;47.792;9.628;2024-03-25T01:21:37;3.80;99.90
18888;DHT22;9576;47.792;9.628;2024-03-25T01:24:39;3.80;99.90
18888;DHT22;9576;47.792;9.628;2024-03-25T01:27:40;3.80;99.90
18888;DHT22;9576;47.792;9.628;2024-03-25T01:30:44;3.80;99.90
18888;DHT22;9576;47.792;9.628;2024-03-25T01:33:44;3.70;99.90
18888;DHT22;9576;47.792;9.628;2024-03-25T01:36:46;3.60;99.90
18888;DHT22;9576;47.792;9.628;2024-03-25T01:39:47;3.60;99.90
18888;DHT22;9576;47.792;9.628;2024-03-25T01:42:55;3.50;99.90
18888;DHT22;9576;47.792;9.628;2024-03-25T01:45:57;3.40;99.90
18888;DHT22;9576;47.792;9.628;2024-03-25T01:48:59;3.40;99.90
18888;DHT22;9576;47.792;9.628;2024-03-25T01:52:00;3.40;99.90
18888;DHT22;9576;47.792;9.628;2024-03-25T01:55:02;3.30;99.90
18888;DHT22;9576;47.792;9.628;2024-03-25T01:58:05;3.30;99.90
18888;DHT22;9576;47.792;9.628;2024-03-25T02:01:09;3.30;99.90
18888;DHT22;9576;47.792;9.628;2024-03-25T02:04:14;3.20;99.90
18888;DHT22;9576;47.792;9.628;2024-03-25T02:07:16;3.20;99.90
18888;DHT22;9576;47.792;9.628;2024-03-25T02:10:18;3.20;99.90
18888;DHT22;9576;47.792;9.628;2024-03-25T02:13:19;3.20;99.90
18888;DHT22;9576;47.792;9.628;2024-03-25T02:16:23;3.20;99.90
18888;DHT22;9576;47.792;9.628;2024-03-25T02:19:25;3.30;99.90
18888;DHT22;9576;47.792;9.628;2024-03-25T02:22:27;3.30;99.90
18888;DHT22;9576;47.792;9.628;2024-03-25T02:25:31;3.40;99.90
18888;DHT22;9576;47.792;9.628;2024-03-25T02:28:35;3.30;99.90
18888;DHT22;9576;47.792;9.628;2024-03-25T02:31:36;3.30;99.90
18888;DHT22;9576;47.792;9.628;2024-03-25T02:34:39;3.20;99.90
18888;DHT22;9576;47.792;9.628;2024-03-25T02:37:41;3.20;99.90
18888;DHT22;9576;47.792;9.628;2024-03-25T02:40:43;3.10;99.90
18888;DHT22;9576;47.792;9.628;2024-03-25T02:43:45;3.00;99.90
18888;DHT22;9576;47.792;9.628;2024-03-25T02:46:47;3.00;99.90
18888;DHT22;9576;47.792;9.628;2024-03-25T02:49:48;2.90;99.90
18888;DHT22;9576;47.792;9.628;2024-03-25T02:52:50;2.90;99.90
18888;DHT22;9576;47.792;9.628;2024-03-25T02:55:52;2.90;99.90
18888;DHT22;9576;47.792;9.628;2024-03-25T02:58:55;2.90;99.90
18888;DHT22;9576;47.792;9.628;2024-03-25T03:01:56;2.90;99.90
18888;DHT22;9576;47.792;9.628;2024-03-25T03:04:58;2.90;99.90
18888;DHT22;9576;47.792;9.628;2024-03-25T03:08:00;2.90;99.90
18888;DHT22;9576;47.792;9.628;2024-03-25T03:11:01;2.90;99.90
18888;DHT22;9576;47.792;9.628;2024-03-25T03:14:04;2.90;99.90
18888;DHT22;9576;47.792;9.628;2024-03-25T03:17:06;2.90;99.90
18888;DHT22;9576;47.792;9.628;2024-03-25T03:20:08;2.80;99.90
18888;DHT22;9576;47.792;9.628;2024-03-25T03:23:10;2.80;99.90
18888;DHT22;9576;47.792;9.628;2024-03-25T03:26:11;2.70;99.90
18888;DHT22;9576;47.792;9.628;2024-03-25T03:29:15;2.70;99.90
18888;DHT22;9576;47.792;9.628;2024-03-25T03:32:16;2.80;99.90
18888;DHT22;9576;47.792;9.628;2024-03-25T03:35:18;2.80;99.90
18888;DHT22;9576;47.792;9.628;2024-03-25T03:38:20;2.80;99.90
18888;DHT22;9576;47.792;9.628;2024-03-25T03:41:21;2.80;99.90
18888;DHT22;9576;47.792;9.628;2024-03-25T03:44:24;2.80;99.90
18888;DHT22;9576;47.792;9.628;2024-03-25T03:47:25;2.80;99.90
18888;DHT22;9576;47.792;9.628;2024-03-25T03:50:27;2.80;99.90
18888;DHT22;9576;47.792;9.628;2024-03-25T03:53:28;2.80;99.90
18888;DHT22;9576;47.792;9.628;2024-03-25T03:56:30;2.80;99.90
18888;DHT22;9576;47.792;9.628;2024-03-25T03:59:32;2.70;99.90
18888;DHT22;9576;47.792;9.628;2024-03-25T04:02:34;2.70;99.90
18888;DHT22;9576;47.792;9.628;2024-03-25T04:05:35;2.80;99.90
18888;DHT22;9576;47.792;9.628;2024-03-25T04:08:37;2.80;99.90
18888;DHT22;9576;47.792;9.628;2024-03-25T04:11:39;2.80;99.90
18888;DHT22;9576;47.792;9.628;2024-03-25T04:14:42;2.80;99.90
18888;DHT22;9576;47.792;9.628;2024-03-25T04:17:43;2.80;99.90
18888;DHT22;9576;47.792;9.628;2024-03-25T04:20:45;2.80;99.90
18888;DHT22;9576;47.792;9.628;2024-03-25T04:23:47;2.90;99.90
18888;DHT22;9576;47.792;9.628;2024-03-25T04:26:49;2.80;99.90
18888;DHT22;9576;47.792;9.628;2024-03-25T04:29:52;2.80;99.90
18888;DHT22;9576;47.792;9.628;2024-03-25T04:32:53;2.80;99.90
18888;DHT22;9576;47.792;9.628;2024-03-25T04:35:55;2.70;99.90
18888;DHT22;9576;47.792;9.628;2024-03-25T04:38:57;2.60;99.90
18888;DHT22;9576;47.792;9.628;2024-03-25T04:41:58;2.60;99.90
18888;DHT22;9576;47.792;9.628;2024-03-25T04:45:00;2.70;99.90
18888;DHT22;9576;47.792;9.628;2024-03-25T04:48:01;2.80;99.90
18888;DHT22;9576;47.792;9.628;2024-03-25T04:51:02;2.70;99.90
18888;DHT22;9576;47.792;9.628;2024-03-25T04:54:03;2.70;99.90
18888;DHT22;9576;47.792;9.628;2024-03-25T04:57:04;2.80;99.90
18888;DHT22;9576;47.792;9.628;2024-03-25T05:00:08;2.80;99.90
18888;DHT22;9576;47.792;9.628;2024-03-25T05:03:10;2.80;99.90
18888;DHT22;9576;47.792;9.628;2024-03-25T05:06:11;2.90;99.90
18888;DHT22;9576;47.792;9.628;2024-03-25T05:09:12;2.80;99.90
18888;DHT22;9576;47.792;9.628;2024-03-25T05:12:12;2.80;99.90
18888;DHT22;9576;47.792;9.628;2024-03-25T05:15:15;2.80;99.90
18888;DHT22;9576;47.792;9.628;2024-03-25T05:18:16;2.80;99.90
18888;DHT22;9576;47.792;9.628;2024-03-25T05:21:17;2.80;99.90
18888;DHT22;9576;47.792;9.628;2024-03-25T05:24:18;2.80;99.90
18888;DHT22;9576;47.792;9.628;2024-03-25T05:27:19;2.70;99.90
18888;DHT22;9576;47.792;9.628;2024-03-25T05:30:21;2.70;99.90
18888;DHT22;9576;47.792;9.628;2024-03-25T05:33:22;2.80;99.90
18888;DHT22;9576;47.792;9.628;2024-03-25T05:36:23;2.80;99.90
18888;DHT22;9576;47.792;9.628;2024-03-25T05:39:24;2.90;99.90
18888;DHT22;9576;47.792;9.628;2024-03-25T05:42:25;3.00;99.90
18888;DHT22;9576;47.792;9.628;2024-03-25T05:45:27;3.10;99.90
18888;DHT22;9576;47.792;9.628;2024-03-25T05:48:28;3.20;99.90
18888;DHT22;9576;47.792;9.628;2024-03-25T05:51:29;3.20;99.90
18888;DHT22;9576;47.792;9.628;2024-03-25T05:54:30;3.20;99.90
18888;DHT22;9576;47.792;9.628;2024-03-25T05:57:31;3.30;99.90
18888;DHT22;9576;47.792;9.628;2024-03-25T06:00:33;3.40;99.90
18888;DHT22;9576;47.792;9.628;2024-03-25T06:03:34;3.50;99.90
18888;DHT22;9576;47.792;9.628;2024-03-25T06:06:35;3.50;99.90
18888;DHT22;9576;47.792;9.628;2024-03-25T06:09:36;3.50;99.90
18888;DHT22;9576;47.792;9.628;2024-03-25T06:12:37;3.50;99.90
18888;DHT22;9576;47.792;9.628;2024-03-25T06:15:39;3.70;99.90
18888;DHT22;9576;47.792;9.628;2024-03-25T06:18:40;3.70;99.90
18888;DHT22;9576;47.792;9.628;2024-03-25T06:21:41;3.80;99.90
18888;DHT22;9576;47.792;9.628;2024-03-25T06:24:43;3.90;99.90
18888;DHT22;9576;47.792;9.628;2024-03-25T06:27:44;4.00;99.90
18888;DHT22;9576;47.792;9.628;2024-03-25T06:30:46;4.10;99.90
18888;DHT22;9576;47.792;9.628;2024-03-25T06:34:06;4.10;99.90
18888;DHT22;9576;47.792;9.628;2024-03-25T06:37:16;4.30;99.90
18888;DHT22;9576;47.792;9.628;2024-03-25T06:40:17;4.40;99.90
18888;DHT22;9576;47.792;9.628;2024-03-25T06:43:18;4.50;99.90
18888;DHT22;9576;47.792;9.628;2024-03-25T06:46:20;4.60;99.90
18888;DHT22;9576;47.792;9.628;2024-03-25T06:49:21;4.60;99.90
18888;DHT22;9576;47.792;9.628;2024-03-25T06:52:22;4.60;99.90
18888;DHT22;9576;47.792;9.628;2024-03-25T06:55:23;4.70;99.90
18888;DHT22;9576;47.792;9.628;2024-03-25T06:58:24;4.60;99.90
18888;DHT22;9576;47.792;9.628;2024-03-25T07:01:27;4.60;99.90
18888;DHT22;9576;47.792;9.628;2024-03-25T07:04:28;4.50;99.90
18888;DHT22;9576;47.792;9.628;2024-03-25T07:07:29;4.50;99.90
18888;DHT22;9576;47.792;9.628;2024-03-25T07:10:30;4.60;99.90
18888;DHT22;9576;47.792;9.628;2024-03-25T07:13:31;4.60;99.90
18888;DHT22;9576;47.792;9.628;2024-03-25T07:16:33;4.60;99.90
18888;DHT22;9576;47.792;9.628;2024-03-25T07:19:34;4.60;99.90
18888;DHT22;9576;47.792;9.628;2024-03-25T07:22:35;4.70;99.90
18888;DHT22;9576;47.792;9.628;2024-03-25T07:25:36;4.90;99.90
18888;DHT22;9576;47.792;9.628;2024-03-25T07:28:37;5.00;99.90
18888;DHT22;9576;47.792;9.628;2024-03-25T07:31:39;5.10;99.90
18888;DHT22;9576;47.792;9.628;2024-03-25T07:34:40;5.20;99.90
18888;DHT22;9576;47.792;9.628;2024-03-25T07:37:41;5.30;99.90
18888;DHT22;9576;47.792;9.628;2024-03-25T07:40:42;5.40;99.90
18888;DHT22;9576;47.792;9.628;2024-03-25T07:43:43;5.40;99.90
18888;DHT22;9576;47.792;9.628;2024-03-25T07:46:45;5.50;99.90
18888;DHT22;9576;47.792;9.628;2024-03-25T07:49:46;5.60;99.90
18888;DHT22;9576;47.792;9.628;2024-03-25T07:52:47;5.60;99.90
18888;DHT22;9576;47.792;9.628;2024-03-25T07:55:48;5.70;99.90
18888;DHT22;9576;47.792;9.628;2024-03-25T07:58:49;5.80;99.90
18888;DHT22;9576;47.792;9.628;2024-03-25T08:01:51;5.80;99.90
18888;DHT22;9576;47.792;9.628;2024-03-25T08:04:52;5.80;99.90
18888;DHT22;9576;47.792;9.628;2024-03-25T08:07:53;5.90;99.90
18888;DHT22;9576;47.792;9.628;2024-03-25T08:10:54;6.00;99.90
18888;DHT22;9576;47.792;9.628;2024-03-25T08:13:55;6.00;99.90
18888;DHT22;9576;47.792;9.628;2024-03-25T08:16:57;6.10;99.90
18888;DHT22;9576;47.792;9.628;2024-03-25T08:19:58;6.30;99.90
18888;DHT22;9576;47.792;9.628;2024-03-25T08:22:59;6.40;99.90
18888;DHT22;9576;47.792;9.628;2024-03-25T08:26:00;6.40;99.90
18888;DHT22;9576;47.792;9.628;2024-03-25T08:29:01;6.40;99.90
18888;DHT22;9576;47.792;9.628;2024-03-25T08:32:04;6.50;99.90
18888;DHT22;9576;47.792;9.628;2024-03-25T08:35:05;6.60;99.90
18888;DHT22;9576;47.792;9.628;2024-03-25T08:38:06;6.60;99.90
18888;DHT22;9576;47.792;9.628;2024-03-25T08:41:07;6.60;99.90
18888;DHT22;9576;47.792;9.628;2024-03-25T08:44:08;6.60;99.90
18888;DHT22;9576;47.792;9.628;2024-03-25T08:47:10;6.60;99.90
18888;DHT22;9576;47.792;9.628;2024-03-25T08:50:11;6.70;99.90
18888;DHT22;9576;47.792;9.628;2024-03-25T08:53:12;6.70;99.90
18888;DHT22;9576;47.792;9.628;2024-03-25T08:56:13;6.80;99.90
18888;DHT22;9576;47.792;9.628;2024-03-25T08:59:14;7.00;99.90
18888;DHT22;9576;47.792;9.628;2024-03-25T09:02:16;6.90;99.90
18888;DHT22;9576;47.792;9.628;2024-03-25T09:05:17;6.90;99.90
18888;DHT22;9576;47.792;9.628;2024-03-25T09:08:19;6.90;99.90
18888;DHT22;9576;47.792;9.628;2024-03-25T09:11:19;7.00;99.90
18888;DHT22;9576;47.792;9.628;2024-03-25T09:14:20;7.10;99.90
18888;DHT22;9576;47.792;9.628;2024-03-25T09:17:23;7.10;99.90
18888;DHT22;9576;47.792;9.628;2024-03-25T09:20:24;7.00;99.90
18888;DHT22;9576;47.792;9.628;2024-03-25T09:23:24;7.00;99.90
18888;DHT22;9576;47.792;9.628;2024-03-25T09:26:25;7.00;99.90
18888;DHT22;9576;47.792;9.628;2024-03-25T09:29:26;7.10;99.90
18888;DHT22;9576;47.792;9.628;2024-03-25T09:32:29;7.10;99.90
18888;DHT22;9576;47.792;9.628;2024-03-25T09:35:29;7.30;99.90
18888;DHT22;9576;47.792;9.628;2024-03-25T09:38:30;7.30;99.90
18888;DHT22;9576;47.792;9.628;2024-03-25T09:41:35;7.30;99.90
18888;DHT22;9576;47.792;9.628;2024-03-25T09:44:36;7.50;99.90
18888;DHT22;9576;47.792;9.628;2024-03-25T09:47:39;7.80;99.90
18888;DHT22;9576;47.792;9.628;2024-03-25T09:50:40;7.90;99.90
18888;DHT22;9576;47.792;9.628;2024-03-25T09:53:42;8.00;99.90
18888;DHT22;9576;47.792;9.628;2024-03-25T09:56:43;8.20;99.90
18888;DHT22;9576;47.792;9.628;2024-03-25T09:59:44;8.30;99.90
18888;DHT22;9576;47.792;9.628;2024-03-25T10:02:46;8.40;99.90
18888;DHT22;9576;47.792;9.628;2024-03-25T10:05:48;8.40;99.90
18888;DHT22;9576;47.792;9.628;2024-03-25T10:08:48;8.30;99.90
18888;DHT22;9576;47.792;9.628;2024-03-25T10:11:53;8.30;99.90
18888;DHT22;9576;47.792;9.628;2024-03-25T10:14:54;8.50;99.90
18888;DHT22;9576;47.792;9.628;2024-03-25T10:17:56;8.40;99.90
18888;DHT22;9576;47.792;9.628;2024-03-25T10:20:57;8.50;99.90
18888;DHT22;9576;47.792;9.628;2024-03-25T10:23:58;8.60;99.90
18888;DHT22;9576;47.792;9.628;2024-03-25T10:26:59;8.80;99.90
18888;DHT22;9576;47.792;9.628;2024-03-25T10:30:00;9.10;99.90
18888;DHT22;9576;47.792;9.628;2024-03-25T10:33:04;9.30;99.90
18888;DHT22;9576;47.792;9.628;2024-03-25T10:36:07;9.60;99.90
18888;DHT22;9576;47.792;9.628;2024-03-25T10:39:09;9.90;99.90
18888;DHT22;9576;47.792;9.628;2024-03-25T10:42:13;10.10;99.90
18888;DHT22;9576;47.792;9.628;2024-03-25T10:45:15;10.20;99.90
18888;DHT22;9576;47.792;9.628;2024-03-25T10:48:19;10.20;99.90
18888;DHT22;9576;47.792;9.628;2024-03-25T10:51:21;10.10;99.90
18888;DHT22;9576;47.792;9.628;2024-03-25T10:54:23;10.20;99.90
18888;DHT22;9576;47.792;9.628;2024-03-25T10:57:26;10.60;99.90
18888;DHT22;9576;47.792;9.628;2024-03-25T11:00:29;10.80;99.90
18888;DHT22;9576;47.792;9.628;2024-03-25T11:03:32;11.00;99.90
18888;DHT22;9576;47.792;9.628;2024-03-25T11:06:33;11.10;99.90
18888;DHT22;9576;47.792;9.628;2024-03-25T11:09:34;11.40;99.90
18888;DHT22;9576;47.792;9.628;2024-03-25T11:12:36;11.50;99.90
18888;DHT22;9576;47.792;9.628;2024-03-25T11:15:37;11.60;99.90
18888;DHT22;9576;47.792;9.628;2024-03-25T11:18:51;11.50;99.90
18888;DHT22;9576;47.792;9.628;2024-03-25T11:21:52;11.50;99.90
18888;DHT22;9576;47.792;9.628;2024-03-25T11:24:55;11.80;99.90
18888;DHT22;9576;47.792;9.628;2024-03-25T11:27:56;12.10;99.90
18888;DHT22;9576;47.792;9.628;2024-03-25T11:30:57;12.40;99.90
18888;DHT22;9576;47.792;9.628;2024-03-25T11:34:04;12.60;99.90
18888;DHT22;9576;47.792;9.628;2024-03-25T11:37:05;12.80;99.90
18888;DHT22;9576;47.792;9.628;2024-03-25T11:40:07;13.00;99.90
18888;DHT22;9576;47.792;9.628;2024-03-25T11:43:08;13.10;99.90
18888;DHT22;9576;47.792;9.628;2024-03-25T11:46:09;13.30;99.90
18888;DHT22;9576;47.792;9.628;2024-03-25T11:49:13;13.30;99.90
18888;DHT22;9576;47.792;9.628;2024-03-25T11:52:14;13.50;99.90
18888;DHT22;9576;47.792;9.628;2024-03-25T11:55:16;13.50;99.90
18888;DHT22;9576;47.792;9.628;2024-03-25T11:58:17;13.60;99.90
18888;DHT22;9576;47.792;9.628;2024-03-25T12:01:18;13.90;99.90
18888;DHT22;9576;47.792;9.628;2024-03-25T12:04:21;14.30;99.90
18888;DHT22;9576;47.792;9.628;2024-03-25T12:07:22;14.30;99.90
18888;DHT22;9576;47.792;9.628;2024-03-25T12:10:23;14.10;99.90
18888;DHT22;9576;47.792;9.628;2024-03-25T12:13:42;14.00;99.90
18888;DHT22;9576;47.792;9.628;2024-03-25T12:16:44;14.10;99.90
18888;DHT22;9576;47.792;9.628;2024-03-25T12:19:58;14.40;99.90
18888;DHT22;9576;47.792;9.628;2024-03-25T12:23:01;14.70;99.90
18888;DHT22;9576;47.792;9.628;2024-03-25T12:26:04;14.20;99.90
18888;DHT22;9576;47.792;9.628;2024-03-25T12:29:05;14.00;99.90
18888;DHT22;9576;47.792;9.628;2024-03-25T12:32:09;14.30;99.90
18888;DHT22;9576;47.792;9.628;2024-03-25T12:35:13;14.80;99.90
18888;DHT22;9576;47.792;9.628;2024-03-25T12:38:22;15.30;99.90
18888;DHT22;9576;47.792;9.628;2024-03-25T12:41:23;15.80;99.90
18888;DHT22;9576;47.792;9.628;2024-03-25T12:44:24;16.00;99.90
18888;DHT22;9576;47.792;9.628;2024-03-25T12:47:25;16.30;99.90
18888;DHT22;9576;47.792;9.628;2024-03-25T12:50:27;16.40;99.90
18888;DHT22;9576;47.792;9.628;2024-03-25T12:53:30;16.70;99.90
18888;DHT22;9576;47.792;9.628;2024-03-25T12:56:31;16.90;99.90
18888;DHT22;9576;47.792;9.628;2024-03-25T12:59:32;16.80;99.90
18888;DHT22;9576;47.792;9.628;2024-03-25T13:02:33;16.70;99.90
18888;DHT22;9576;47.792;9.628;2024-03-25T13:05:36;16.60;97.70
18888;DHT22;9576;47.792;9.628;2024-03-25T13:08:37;16.50;99.00
18888;DHT22;9576;47.792;9.628;2024-03-25T13:11:38;16.70;99.90
18888;DHT22;9576;47.792;9.628;2024-03-25T13:14:39;16.90;99.90
18888;DHT22;9576;47.792;9.628;2024-03-25T13:17:40;17.30;99.90
18888;DHT22;9576;47.792;9.628;2024-03-25T13:20:43;17.50;99.10
18888;DHT22;9576;47.792;9.628;2024-03-25T13:23:45;17.50;99.90
18888;DHT22;9576;47.792;9.628;2024-03-25T13:26:46;17.70;99.90
18888;DHT22;9576;47.792;9.628;2024-03-25T13:29:47;17.90;99.60
18888;DHT22;9576;47.792;9.628;2024-03-25T13:32:48;18.20;99.90
18888;DHT22;9576;47.792;9.628;2024-03-25T13:35:50;18.60;99.90
18888;DHT22;9576;47.792;9.628;2024-03-25T13:38:51;18.50;96.70
18888;DHT22;9576;47.792;9.628;2024-03-25T13:41:52;18.40;99.90
18888;DHT22;9576;47.792;9.628;2024-03-25T13:44:53;18.00;99.20
18888;DHT22;9576;47.792;9.628;2024-03-25T13:47:54;18.20;97.40
18888;DHT22;9576;47.792;9.628;2024-03-25T13:50:56;17.90;97.30
18888;DHT22;9576;47.792;9.628;2024-03-25T13:53:57;17.90;97.40
18888;DHT22;9576;47.792;9.628;2024-03-25T13:56:58;18.40;96.90
18888;DHT22;9576;47.792;9.628;2024-03-25T13:59:59;19.10;96.40
18888;DHT22;9576;47.792;9.628;2024-03-25T14:03:00;19.90;96.10
18888;DHT22;9576;47.792;9.628;2024-03-25T14:06:03;20.90;97.10
18888;DHT22;9576;47.792;9.628;2024-03-25T14:09:04;21.60;94.60
18888;DHT22;9576;47.792;9.628;2024-03-25T14:12:05;21.90;93.60
18888;DHT22;9576;47.792;9.628;2024-03-25T14:15:07;21.90;94.10
18888;DHT22;9576;47.792;9.628;2024-03-25T14:18:08;21.80;93.80
18888;DHT22;9576;47.792;9.628;2024-03-25T14:21:10;21.20;90.10
18888;DHT22;9576;47.792;9.628;2024-03-25T14:24:11;20.80;92.20
18888;DHT22;9576;47.792;9.628;2024-03-25T14:27:12;20.80;91.50
18888;DHT22;9576;47.792;9.628;2024-03-25T14:30:14;21.00;91.30
18888;DHT22;9576;47.792;9.628;2024-03-25T14:33:15;21.30;89.70
18888;DHT22;9576;47.792;9.628;2024-03-25T14:36:17;20.70;90.80
18888;DHT22;9576;47.792;9.628;2024-03-25T14:39:18;20.60;90.60
18888;DHT22;9576;47.792;9.628;2024-03-25T14:42:19;21.50;91.00
18888;DHT22;9576;47.792;9.628;2024-03-25T14:45:20;22.40;90.60
18888;DHT22;9576;47.792;9.628;2024-03-25T14:48:21;23.60;86.60
18888;DHT22;9576;47.792;9.628;2024-03-25T14:51:23;24.50;85.00
18888;DHT22;9576;47.792;9.628;2024-03-25T14:54:32;25.30;81.00
18888;DHT22;9576;47.792;9.628;2024-03-25T14:57:34;26.20;77.40
18888;DHT22;9576;47.792;9.628;2024-03-25T15:00:35;26.20;76.20
18888;DHT22;9576;47.792;9.628;2024-03-25T15:03:35;26.20;73.20
18888;DHT22;9576;47.792;9.628;2024-03-25T15:06:38;26.00;72.30
18888;DHT22;9576;47.792;9.628;2024-03-25T15:09:39;25.60;75.30
18888;DHT22;9576;47.792;9.628;2024-03-25T15:12:40;24.60;71.30
18888;DHT22;9576;47.792;9.628;2024-03-25T15:15:41;25.10;67.60
18888;DHT22;9576;47.792;9.628;2024-03-25T15:18:42;25.90;71.20
18888;DHT22;9576;47.792;9.628;2024-03-25T15:21:46;26.10;69.60
18888;DHT22;9576;47.792;9.628;2024-03-25T15:24:47;26.70;68.90
18888;DHT22;9576;47.792;9.628;2024-03-25T15:27:48;27.60;69.40
18888;DHT22;9576;47.792;9.628;2024-03-25T15:30:49;28.00;69.60
18888;DHT22;9576;47.792;9.628;2024-03-25T15:33:50;28.30;70.20
18888;DHT22;9576;47.792;9.628;2024-03-25T15:36:53;26.20;62.40
18888;DHT22;9576;47.792;9.628;2024-03-25T15:39:53;24.10;69.90
18888;DHT22;9576;47.792;9.628;2024-03-25T15:42:54;25.30;69.50
18888;DHT22;9576;47.792;9.628;2024-03-25T15:45:55;26.00;70.60
18888;DHT22;9576;47.792;9.628;2024-03-25T15:48:56;26.90;66.70
18888;DHT22;9576;47.792;9.628;2024-03-25T15:51:59;27.50;65.80
18888;DHT22;9576;47.792;9.628;2024-03-25T15:55:00;27.30;67.30
18888;DHT22;9576;47.792;9.628;2024-03-25T15:58:01;27.70;64.20
18888;DHT22;9576;47.792;9.628;2024-03-25T16:01:02;28.70;64.00
18888;DHT22;9576;47.792;9.628;2024-03-25T16:04:03;28.90;62.80
18888;DHT22;9576;47.792;9.628;2024-03-25T16:07:05;28.30;61.50
18888;DHT22;9576;47.792;9.628;2024-03-25T16:10:07;27.30;63.00
18888;DHT22;9576;47.792;9.628;2024-03-25T16:13:08;27.80;63.00
18888;DHT22;9576;47.792;9.628;2024-03-25T16:16:09;28.30;60.40
18888;DHT22;9576;47.792;9.628;2024-03-25T16:19:10;27.70;63.00
18888;DHT22;9576;47.792;9.628;2024-03-25T16:22:13;26.60;62.80
18888;DHT22;9576;47.792;9.628;2024-03-25T16:25:13;25.40;62.50
18888;DHT22;9576;47.792;9.628;2024-03-25T16:28:14;25.10;64.90
18888;DHT22;9576;47.792;9.628;2024-03-25T16:31:15;24.30;65.60
18888;DHT22;9576;47.792;9.628;2024-03-25T16:34:16;23.50;64.50
18888;DHT22;9576;47.792;9.628;2024-03-25T16:37:18;22.90;66.40
18888;DHT22;9576;47.792;9.628;2024-03-25T16:40:19;22.20;68.30
18888;DHT22;9576;47.792;9.628;2024-03-25T16:43:20;22.40;67.10
18888;DHT22;9576;47.792;9.628;2024-03-25T16:46:21;22.70;69.30
18888;DHT22;9576;47.792;9.628;2024-03-25T16:49:24;23.60;69.40
18888;DHT22;9576;47.792;9.628;2024-03-25T16:52:26;24.00;67.60
18888;DHT22;9576;47.792;9.628;2024-03-25T16:55:27;24.50;65.80
18888;DHT22;9576;47.792;9.628;2024-03-25T16:58:28;24.50;64.00
18888;DHT22;9576;47.792;9.628;2024-03-25T17:01:29;24.60;64.00
18888;DHT22;9576;47.792;9.628;2024-03-25T17:04:30;24.20;65.40
18888;DHT22;9576;47.792;9.628;2024-03-25T17:07:32;23.30;66.90
18888;DHT22;9576;47.792;9.628;2024-03-25T17:10:33;23.00;70.30
18888;DHT22;9576;47.792;9.628;2024-03-25T17:13:34;22.50;70.00
18888;DHT22;9576;47.792;9.628;2024-03-25T17:16:35;21.20;68.40
18888;DHT22;9576;47.792;9.628;2024-03-25T17:19:36;20.40;71.70
18888;DHT22;9576;47.792;9.628;2024-03-25T17:22:38;19.50;73.50
18888;DHT22;9576;47.792;9.628;2024-03-25T17:25:39;18.30;75.50
18888;DHT22;9576;47.792;9.628;2024-03-25T17:28:40;16.90;77.70
18888;DHT22;9576;47.792;9.628;2024-03-25T17:31:41;15.80;82.10
18888;DHT22;9576;47.792;9.628;2024-03-25T17:34:42;15.00;83.00
18888;DHT22;9576;47.792;9.628;2024-03-25T17:37:44;14.40;84.60
18888;DHT22;9576;47.792;9.628;2024-03-25T17:40:45;13.60;88.40
18888;DHT22;9576;47.792;9.628;2024-03-25T17:43:46;13.20;88.20
18888;DHT22;9576;47.792;9.628;2024-03-25T17:46:47;12.80;90.50
18888;DHT22;9576;47.792;9.628;2024-03-25T17:49:48;12.50;90.80
18888;DHT22;9576;47.792;9.628;2024-03-25T17:52:50;12.20;91.30
18888;DHT22;9576;47.792;9.628;2024-03-25T17:55:51;11.90;92.20
18888;DHT22;9576;47.792;9.628;2024-03-25T17:58:52;11.60;93.10
18888;DHT22;9576;47.792;9.628;2024-03-25T18:01:53;11.40;93.90
18888;DHT22;9576;47.792;9.628;2024-03-25T18:04:54;11.10;94.90
18888;DHT22;9576;47.792;9.628;2024-03-25T18:07:56;10.90;96.00
18888;DHT22;9576;47.792;9.628;2024-03-25T18:10:57;10.80;95.80
18888;DHT22;9576;47.792;9.628;2024-03-25T18:13:58;10.70;96.60
18888;DHT22;9576;47.792;9.628;2024-03-25T18:16:59;10.50;97.40
18888;DHT22;9576;47.792;9.628;2024-03-25T18:20:00;10.30;97.30
18888;DHT22;9576;47.792;9.628;2024-03-25T18:23:02;10.20;98.00
18888;DHT22;9576;47.792;9.628;2024-03-25T18:26:03;10.00;98.30
18888;DHT22;9576;47.792;9.628;2024-03-25T18:29:04;10.00;99.20
18888;DHT22;9576;47.792;9.628;2024-03-25T18:32:05;9.90;99.40
18888;DHT22;9576;47.792;9.628;2024-03-25T18:35:07;9.70;99.50
18888;DHT22;9576;47.792;9.628;2024-03-25T18:38:09;9.70;99.90
18888;DHT22;9576;47.792;9.628;2024-03-25T18:41:10;9.70;99.90
18888;DHT22;9576;47.792;9.628;2024-03-25T18:44:11;9.60;99.90
18888;DHT22;9576;47.792;9.628;2024-03-25T18:47:12;9.40;99.90
18888;DHT22;9576;47.792;9.628;2024-03-25T18:50:13;9.20;99.90
18888;DHT22;9576;47.792;9.628;2024-03-25T18:53:15;9.10;99.90
18888;DHT22;9576;47.792;9.628;2024-03-25T18:56:16;9.10;99.90
18888;DHT22;9576;47.792;9.628;2024-03-25T18:59:17;9.10;99.90
18888;DHT22;9576;47.792;9.628;2024-03-25T19:02:18;9.10;99.90
18888;DHT22;9576;47.792;9.628;2024-03-25T19:05:19;9.00;99.90
18888;DHT22;9576;47.792;9.628;2024-03-25T19:08:21;9.00;99.90
18888;DHT22;9576;47.792;9.628;2024-03-25T19:11:22;9.00;99.90
18888;DHT22;9576;47.792;9.628;2024-03-25T19:14:23;8.90;99.90
18888;DHT22;9576;47.792;9.628;2024-03-25T19:17:24;8.80;99.90
18888;DHT22;9576;47.792;9.628;2024-03-25T19:20:25;8.80;99.90
18888;DHT22;9576;47.792;9.628;2024-03-25T19:23:27;8.70;99.90
18888;DHT22;9576;47.792;9.628;2024-03-25T19:26:28;8.50;99.90
18888;DHT22;9576;47.792;9.628;2024-03-25T19:29:29;8.50;99.90
18888;DHT22;9576;47.792;9.628;2024-03-25T19:32:30;8.50;99.90
18888;DHT22;9576;47.792;9.628;2024-03-25T19:35:30;8.50;99.90
18888;DHT22;9576;47.792;9.628;2024-03-25T19:38:33;8.30;99.90